createdAt,value
2024-04-06T00:03:50.466Z,21.80
2024-04-06T00:19:07.950Z,153.80
2024-04-06T00:34:11.173Z,208.30
2024-04-06T00:49:22.196Z,127.80
2024-04-06T01:04:25.978Z,21.80
2024-04-06T01:19:32.248Z,13.00
2024-04-06T01:34:37.674Z,14.50
2024-04-06T01:49:45.559Z,18.10
2024-04-06T02:04:48.419Z,10.10
2024-04-06T02:19:51.398Z,10.80
2024-04-06T02:34:54.544Z,9.50
2024-04-06T02:50:00.520Z,10.50
2024-04-06T03:05:04.502Z,24.40
2024-04-06T03:20:09.698Z,10.30
2024-04-06T03:35:17.672Z,9.40
2024-04-06T03:50:24.175Z,9.10
2024-04-06T04:05:30.429Z,10.70
2024-04-06T04:20:34.665Z,10.80
2024-04-06T04:36:01.738Z,15.80
2024-04-06T04:51:04.961Z,7.90
2024-04-06T05:06:30.482Z,8.10
2024-04-06T05:21:33.730Z,15.60
2024-04-06T05:36:37.086Z,14.10
2024-04-06T05:51:40.164Z,12.00
2024-04-06T06:07:06.137Z,7.50
2024-04-06T06:22:10.939Z,12.70
2024-04-06T06:52:38.297Z,9.70
2024-04-06T07:07:44.121Z,10.70
2024-04-06T07:22:48.313Z,44.50
2024-04-06T07:37:54.548Z,25.20
2024-04-06T07:53:00.603Z,16.60
2024-04-06T08:08:04.785Z,25.30
2024-04-06T08:23:09.271Z,9.20
2024-04-06T08:38:13.857Z,8.10
2024-04-06T08:53:17.257Z,11.20
2024-04-06T09:08:22.317Z,12.80
2024-04-06T09:23:27.071Z,9.20
2024-04-06T09:38:30.202Z,7.50
2024-04-06T09:53:35.221Z,9.20
2024-04-06T10:08:52.763Z,7.80
2024-04-06T10:23:56.295Z,11.30
2024-04-06T10:39:05.937Z,16.80
2024-04-06T10:54:09.331Z,7.10
2024-04-06T11:09:13.521Z,16.60
2024-04-06T11:24:16.831Z,11.40
2024-04-06T11:39:20.163Z,10.80
2024-04-06T11:54:24.258Z,18.50
2024-04-06T12:09:32.170Z,7.90
2024-04-06T12:24:55.110Z,10.50
2024-04-06T12:39:58.535Z,9.00
2024-04-06T12:55:01.864Z,12.10
2024-04-06T13:10:08.306Z,9.40
2024-04-06T13:25:20.353Z,10.60
2024-04-06T13:40:23.953Z,13.20
2024-04-06T13:55:27.045Z,8.70
2024-04-06T14:10:31.248Z,12.60
2024-04-06T14:25:37.434Z,10.20
2024-04-06T14:40:44.242Z,27.70
2024-04-06T14:56:11.372Z,19.70
2024-04-06T15:11:15.002Z,36.20
2024-04-06T15:26:18.620Z,46.50
2024-04-06T15:41:21.860Z,38.80
2024-04-06T15:56:24.837Z,54.50
2024-04-06T16:11:28.432Z,73.80
2024-04-06T16:26:32.737Z,71.30
2024-04-06T16:41:37.102Z,57.20
2024-04-06T16:56:40.218Z,230.50
2024-04-06T17:11:43.537Z,220.90
2024-04-06T17:26:46.685Z,259.10
2024-04-06T17:41:50.784Z,235.90
2024-04-06T17:56:54.541Z,212.70
2024-04-06T18:11:57.932Z,119.60
2024-04-06T18:27:01.313Z,198.90
2024-04-06T18:42:04.400Z,66.60
2024-04-06T18:57:07.877Z,111.90
2024-04-06T19:12:11.190Z,495.70
2024-04-06T19:27:14.665Z,84.50
2024-04-06T19:42:19.728Z,176.10
2024-04-06T19:57:23.394Z,78.40
2024-04-06T20:12:27.629Z,44.30
2024-04-06T20:27:30.757Z,167.30
2024-04-06T20:42:35.650Z,174.90
2024-04-06T20:57:38.864Z,223.30
2024-04-06T21:12:45.637Z,157.50
2024-04-06T21:27:48.854Z,133.60
2024-04-06T21:42:52.411Z,96.50
2024-04-06T21:57:55.778Z,67.30
2024-04-06T22:12:58.669Z,54.00
2024-04-06T22:28:01.818Z,114.70
2024-04-06T22:43:04.966Z,150.80
2024-04-06T22:58:08.440Z,99.50
2024-04-06T23:13:11.357Z,88.10
2024-04-06T23:28:17.923Z,70.70
2024-04-06T23:43:21.018Z,98.50
2024-04-06T23:58:23.926Z,70.80
